This is the latest recevied weather packets stored in our database for station/object KE8CZD. If no packets are shown the sender has not sent any weather packets the latest 10 day(s).
| Time | Temp. | Humidity | Pressure | Rain* | Wind** | Luminosity | Snow |
|---|---|---|---|---|---|---|---|
| 1778196285 | 11.67° C | 31% | 1007.9 hPa | 0 mm | - | - | - |
| 1778195924 | 11.67° C | 31% | 1007.9 hPa | 0 mm | - | - | - |
| 1778195564 | 11.67° C | 31% | 1007.8 hPa | 0 mm | - | - | - |
| 1778195204 | 12.22° C | 30% | 1007.7 hPa | 0 mm | - | - | - |
| 1778194844 | 12.78° C | 30% | 1007.7 hPa | 0 mm | - | - | - |
| 1778194484 | 12.22° C | 29% | 1007.7 hPa | 0 mm | - | - | - |
| 1778194124 | 12.22° C | 29% | 1007.7 hPa | 0 mm | - | - | - |
| 1778193764 | 12.78° C | 32% | 1007.8 hPa | 0 mm | - | - | - |
| 1778193499 | 13.33° C | 32% | 1007.7 hPa | 0 mm | - | - | - |
| 1778193404 | 13.33° C | 32% | 1007.7 hPa | 0 mm | - | - | - |
| 1778193044 | 13.33° C | 32% | 1007.7 hPa | 0 mm | - | - | - |
| 1778192684 | 12.22° C | 30% | 1007.9 hPa | 0 mm | - | - | - |
| 1778192324 | 11.67° C | 30% | 1008.1 hPa | 0 mm | - | - | - |
| 1778191604 | 12.22° C | 30% | 1008 hPa | 0 mm | - | - | - |
| 1778191244 | 11.67° C | 29% | 1008 hPa | 0 mm | - | - | - |
| 1778190524 | 12.22° C | 29% | 1007.9 hPa | 0 mm | - | - | - |
| 1778190164 | 12.78° C | 29% | 1007.8 hPa | 0 mm | - | - | - |
| 1778189804 | 13.33° C | 32% | 1007.6 hPa | 0 mm | - | - | - |
| 1778189444 | 13.33° C | 32% | 1007.6 hPa | 0 mm | - | - | - |
| 1778189085 | 12.78° C | 31% | 1007.8 hPa | 0 mm | - | - | - |
| 1778188724 | 13.33° C | 31% | 1007.7 hPa | 0 mm | - | - | - |
| 1778188365 | 12.78° C | 31% | 1007.8 hPa | 0 mm | - | - | - |
| 1778188004 | 12.78° C | 31% | 1007.8 hPa | 0 mm | - | - | - |
| 1778187644 | 12.78° C | 31% | 1007.7 hPa | 0 mm | - | - | - |
| 1778187284 | 13.33° C | 32% | 1007.6 hPa | 0 mm | - | - | - |
* Rain latest hour (hover to see other rain measurements)
** Current wind speed in m/s (hover to see current wind gust speed)